createdAt,value
2019-05-11T00:01:01.603Z,11.80
2019-05-11T00:03:32.099Z,11.90
2019-05-11T00:06:01.713Z,11.90
2019-05-11T00:08:31.126Z,11.90
2019-05-11T00:11:02.353Z,11.90
2019-05-11T00:13:31.894Z,11.80
2019-05-11T00:16:01.394Z,11.80
2019-05-11T00:18:30.920Z,11.80
2019-05-11T00:21:00.375Z,11.80
2019-05-11T00:23:29.842Z,11.80
2019-05-11T00:25:59.368Z,11.80
2019-05-11T00:28:28.888Z,11.80
2019-05-11T00:30:58.413Z,11.80
2019-05-11T00:33:27.871Z,11.80
2019-05-11T00:35:57.322Z,11.80
2019-05-11T00:38:26.795Z,11.80
2019-05-11T00:40:56.246Z,11.80
2019-05-11T00:43:25.697Z,11.80
2019-05-11T00:45:55.907Z,11.80
2019-05-11T00:48:25.387Z,11.80
2019-05-11T00:50:54.859Z,11.80
2019-05-11T00:53:24.338Z,11.80
2019-05-11T00:55:53.955Z,11.80
2019-05-11T00:58:23.502Z,11.80
2019-05-11T01:00:53.367Z,11.80
2019-05-11T01:03:22.907Z,11.70
2019-05-11T01:05:52.461Z,11.70
2019-05-11T01:08:21.890Z,11.70
2019-05-11T01:10:51.401Z,11.70
2019-05-11T01:13:20.895Z,11.70
2019-05-11T01:15:50.339Z,11.70
2019-05-11T01:18:19.845Z,11.70
2019-05-11T01:20:51.126Z,11.70
2019-05-11T01:23:20.601Z,11.70
2019-05-11T01:25:50.230Z,11.70
2019-05-11T01:28:19.709Z,11.70
2019-05-11T01:30:49.164Z,11.70
2019-05-11T01:33:18.668Z,11.70
2019-05-11T01:35:51.005Z,11.70
2019-05-11T01:38:19.201Z,11.70
2019-05-11T01:40:58.198Z,11.60
2019-05-11T01:43:19.732Z,11.60
2019-05-11T01:45:49.202Z,11.70
2019-05-11T01:48:18.654Z,11.60
2019-05-11T01:50:48.102Z,11.60
2019-05-11T01:53:17.590Z,11.60
2019-05-11T01:55:48.656Z,11.50
2019-05-11T01:58:18.112Z,11.50
2019-05-11T02:00:47.603Z,11.50
2019-05-11T02:03:17.041Z,11.40
2019-05-11T02:05:46.591Z,11.50
2019-05-11T02:08:16.035Z,11.40
2019-05-11T02:10:45.479Z,11.50
2019-05-11T02:13:14.952Z,11.40
2019-05-11T02:15:44.407Z,11.40
2019-05-11T02:18:13.855Z,11.40
2019-05-11T02:20:43.315Z,11.50
2019-05-11T02:23:12.762Z,11.50
2019-05-11T02:25:42.224Z,11.50
2019-05-11T02:28:11.688Z,11.50
2019-05-11T02:30:41.128Z,11.40
2019-05-11T02:33:10.596Z,11.40
2019-05-11T02:35:40.691Z,11.50
2019-05-11T02:38:10.219Z,11.40
2019-05-11T02:40:40.719Z,11.40
2019-05-11T02:43:10.282Z,11.40
2019-05-11T02:45:42.013Z,11.30
2019-05-11T02:48:11.852Z,11.30
2019-05-11T02:50:41.317Z,11.30
2019-05-11T02:53:10.879Z,11.20
2019-05-11T02:55:40.414Z,11.20
2019-05-11T02:58:10.430Z,11.10
2019-05-11T03:00:43.237Z,11.10
2019-05-11T03:03:12.739Z,11.10
2019-05-11T03:05:42.295Z,11.10
2019-05-11T03:08:13.763Z,11.10
2019-05-11T03:10:43.254Z,11.00
2019-05-11T03:13:12.774Z,11.10
2019-05-11T03:15:42.343Z,11.10
2019-05-11T03:18:11.785Z,11.10
2019-05-11T03:20:41.228Z,11.10
2019-05-11T03:23:11.799Z,11.10
2019-05-11T03:25:41.316Z,11.10
2019-05-11T03:28:11.009Z,11.10
2019-05-11T03:30:40.439Z,11.10
2019-05-11T03:33:10.982Z,11.00
2019-05-11T03:35:40.467Z,11.00
2019-05-11T03:38:10.698Z,11.10
2019-05-11T03:40:40.126Z,11.10
2019-05-11T03:43:09.588Z,11.10
2019-05-11T03:45:39.063Z,11.00
2019-05-11T03:48:08.517Z,11.10
2019-05-11T03:50:37.954Z,11.10
2019-05-11T03:53:07.447Z,11.10
2019-05-11T03:55:36.891Z,11.10
2019-05-11T03:58:06.363Z,11.10
2019-05-11T04:00:36.909Z,11.10
2019-05-11T04:03:06.364Z,11.10
2019-05-11T04:05:35.811Z,11.00
2019-05-11T04:08:05.272Z,11.00
2019-05-11T04:10:34.770Z,11.00
2019-05-11T04:13:09.565Z,11.00
2019-05-11T04:15:39.044Z,10.90
2019-05-11T04:18:08.555Z,11.00
2019-05-11T04:20:38.014Z,10.90
2019-05-11T04:23:11.494Z,11.00
2019-05-11T04:25:40.935Z,11.00
2019-05-11T04:28:10.434Z,11.00
2019-05-11T04:30:39.882Z,11.10
2019-05-11T04:33:09.356Z,11.00
2019-05-11T04:35:38.828Z,11.10
2019-05-11T04:38:08.298Z,11.10
2019-05-11T04:40:37.767Z,11.10
2019-05-11T04:43:07.228Z,11.10
2019-05-11T04:45:36.691Z,11.10
2019-05-11T04:48:06.163Z,11.10
2019-05-11T04:50:35.618Z,11.10
2019-05-11T04:53:05.142Z,11.00
2019-05-11T04:55:34.618Z,11.00
2019-05-11T04:58:04.218Z,11.00
2019-05-11T05:00:33.688Z,11.00
2019-05-11T05:03:03.171Z,11.00
2019-05-11T05:05:32.617Z,11.00
2019-05-11T05:08:09.758Z,10.90
2019-05-11T05:10:33.244Z,10.90
2019-05-11T05:13:10.651Z,10.90
2019-05-11T05:15:36.389Z,10.90
2019-05-11T05:18:05.930Z,10.90
2019-05-11T05:20:35.399Z,10.90
2019-05-11T05:23:04.842Z,10.90
2019-05-11T05:25:34.302Z,10.90
2019-05-11T05:28:24.129Z,10.80
2019-05-11T05:30:53.598Z,10.80
2019-05-11T05:33:23.090Z,10.80
2019-05-11T05:35:52.541Z,10.70
2019-05-11T05:38:21.996Z,10.80
2019-05-11T05:40:51.457Z,10.70
2019-05-11T05:43:27.905Z,10.70
2019-05-11T05:45:51.985Z,10.70
2019-05-11T05:48:21.457Z,10.80
2019-05-11T05:50:51.061Z,10.80
2019-05-11T05:53:20.610Z,10.80
2019-05-11T05:55:50.066Z,10.70
2019-05-11T05:58:19.517Z,10.80
2019-05-11T06:00:53.853Z,10.90
2019-05-11T06:03:23.291Z,11.00
2019-05-11T06:05:53.095Z,11.10
2019-05-11T06:08:22.550Z,11.10
2019-05-11T06:10:52.059Z,11.20
2019-05-11T06:13:21.508Z,11.40
2019-05-11T06:15:50.963Z,11.60
2019-05-11T06:18:20.439Z,11.70
2019-05-11T06:20:49.928Z,11.90
2019-05-11T06:23:19.429Z,12.10
2019-05-11T06:25:48.865Z,12.20
2019-05-11T06:28:19.656Z,12.30
2019-05-11T06:30:49.152Z,12.30
2019-05-11T06:33:18.590Z,12.40
2019-05-11T06:35:48.081Z,12.30
2019-05-11T06:38:17.509Z,12.40
2019-05-11T06:40:46.960Z,12.40
2019-05-11T06:43:16.368Z,12.50
2019-05-11T06:45:45.761Z,12.50
2019-05-11T06:48:15.288Z,12.60
2019-05-11T06:50:44.734Z,12.70
2019-05-11T06:53:22.986Z,12.70
2019-05-11T06:56:08.317Z,12.70
2019-05-11T06:58:37.855Z,12.80
2019-05-11T07:01:07.385Z,12.90
2019-05-11T07:03:49.315Z,13.00
2019-05-11T07:06:18.867Z,13.20
2019-05-11T07:08:48.318Z,13.30
2019-05-11T07:11:17.785Z,13.30
2019-05-11T07:13:47.236Z,13.40
2019-05-11T07:16:16.871Z,13.50
2019-05-11T07:18:46.343Z,13.60
2019-05-11T07:21:15.796Z,13.70
2019-05-11T07:23:45.243Z,13.80
2019-05-11T07:26:14.737Z,13.90
2019-05-11T07:28:44.189Z,13.90
2019-05-11T07:31:13.635Z,14.00
2019-05-11T07:33:43.170Z,14.10
2019-05-11T07:36:12.717Z,14.30
2019-05-11T07:38:42.149Z,14.50
2019-05-11T07:41:32.219Z,14.60
2019-05-11T07:44:01.661Z,14.70
2019-05-11T07:46:31.097Z,14.70
2019-05-11T07:49:00.559Z,14.80
2019-05-11T07:51:29.916Z,14.90
2019-05-11T07:53:59.370Z,15.00
2019-05-11T07:56:29.854Z,15.10
2019-05-11T07:58:59.218Z,15.20
2019-05-11T08:01:38.739Z,15.20
2019-05-11T08:04:08.425Z,15.40
2019-05-11T08:06:39.125Z,15.60
2019-05-11T08:09:08.780Z,15.70
2019-05-11T08:11:40.369Z,15.90
2019-05-11T08:14:10.516Z,15.80
2019-05-11T08:16:39.949Z,15.90
2019-05-11T08:19:10.850Z,15.80
2019-05-11T08:21:40.498Z,15.70
2019-05-11T08:24:09.922Z,15.70
2019-05-11T08:26:39.918Z,15.70
2019-05-11T08:29:09.394Z,15.60
2019-05-11T08:31:38.850Z,15.70
2019-05-11T08:34:08.999Z,15.90
2019-05-11T08:36:38.533Z,16.00
2019-05-11T08:39:08.176Z,16.10
2019-05-11T08:41:38.735Z,16.30
2019-05-11T08:44:08.989Z,16.40
2019-05-11T08:46:38.872Z,16.60
2019-05-11T08:49:09.374Z,16.40
2019-05-11T08:51:38.952Z,16.00
2019-05-11T08:54:23.530Z,15.80
2019-05-11T08:56:53.007Z,15.90
2019-05-11T08:59:24.132Z,16.20
2019-05-11T09:01:54.851Z,16.60
2019-05-11T09:04:24.327Z,16.90
2019-05-11T09:06:53.782Z,17.20
2019-05-11T09:09:24.330Z,17.50
2019-05-11T09:11:55.052Z,17.70
2019-05-11T09:14:28.323Z,17.90
2019-05-11T09:16:58.041Z,17.80
2019-05-11T09:19:28.617Z,17.90
2019-05-11T09:21:58.950Z,18.10
2019-05-11T09:24:28.450Z,18.00
2019-05-11T09:26:58.647Z,17.80
2019-05-11T09:29:28.398Z,17.60
2019-05-11T09:31:58.378Z,17.40
2019-05-11T09:34:29.060Z,17.30
2019-05-11T09:36:59.964Z,16.80
2019-05-11T09:39:29.417Z,16.40
2019-05-11T09:41:58.871Z,16.20
2019-05-11T09:44:28.961Z,16.10
2019-05-11T09:47:02.290Z,15.90
2019-05-11T09:49:43.754Z,15.80
2019-05-11T09:52:01.889Z,16.10
2019-05-11T09:54:31.382Z,16.40
2019-05-11T09:57:00.783Z,16.80
2019-05-11T09:59:32.394Z,16.90
2019-05-11T10:02:03.004Z,16.70
2019-05-11T10:04:33.433Z,16.90
2019-05-11T10:07:03.487Z,17.40
2019-05-11T10:09:32.929Z,17.50
2019-05-11T10:12:02.431Z,17.40
2019-05-11T10:14:32.040Z,17.40
2019-05-11T10:17:02.975Z,17.40
2019-05-11T10:19:32.420Z,17.60
2019-05-11T10:22:02.192Z,17.70
2019-05-11T10:24:35.527Z,17.90
2019-05-11T10:27:04.986Z,17.70
2019-05-11T10:29:34.434Z,17.70
2019-05-11T10:32:07.773Z,17.80
2019-05-11T10:34:38.627Z,17.50
2019-05-11T10:37:08.601Z,17.00
2019-05-11T10:39:38.475Z,16.50
2019-05-11T10:42:08.668Z,16.00
2019-05-11T10:44:40.036Z,15.80
2019-05-11T10:47:09.534Z,15.70
2019-05-11T10:49:39.571Z,15.90
2019-05-11T10:52:10.402Z,16.30
2019-05-11T10:54:41.386Z,16.80
2019-05-11T10:57:10.856Z,16.80
2019-05-11T10:59:40.331Z,16.60
2019-05-11T11:02:09.786Z,16.40
2019-05-11T11:04:41.578Z,16.60
2019-05-11T11:07:11.063Z,17.10
2019-05-11T11:09:42.550Z,17.20
2019-05-11T11:12:12.010Z,17.00
2019-05-11T11:14:43.121Z,17.10
2019-05-11T11:17:15.720Z,17.10
2019-05-11T11:19:45.181Z,16.80
2019-05-11T11:22:35.067Z,16.60
2019-05-11T11:24:48.185Z,16.50
2019-05-11T11:27:18.513Z,16.30
2019-05-11T11:29:49.834Z,16.20
2019-05-11T11:32:20.811Z,16.40
2019-05-11T11:34:50.258Z,16.70
2019-05-11T11:37:21.409Z,16.70
2019-05-11T11:39:52.186Z,16.70
2019-05-11T11:42:21.634Z,16.80
2019-05-11T11:44:52.419Z,17.00
2019-05-11T11:47:21.921Z,17.50
2019-05-11T11:49:51.397Z,17.60
2019-05-11T11:52:20.893Z,17.30
2019-05-11T11:54:51.977Z,17.00
2019-05-11T11:57:21.865Z,17.10
2019-05-11T11:59:51.310Z,17.30
2019-05-11T12:02:21.860Z,17.50
2019-05-11T12:04:52.347Z,17.60
2019-05-11T12:07:22.867Z,17.60
2019-05-11T12:09:53.681Z,17.50
2019-05-11T12:12:27.897Z,17.50
2019-05-11T12:14:58.478Z,17.80
2019-05-11T12:17:28.656Z,18.20
2019-05-11T12:19:59.156Z,18.00
2019-05-11T12:22:28.669Z,17.70
2019-05-11T12:24:58.882Z,17.30
2019-05-11T12:27:28.797Z,17.30
2019-05-11T12:29:58.360Z,17.50
2019-05-11T12:32:38.385Z,17.50
2019-05-11T12:35:08.700Z,17.40
2019-05-11T12:37:42.530Z,17.20
2019-05-11T12:40:17.834Z,17.10
2019-05-11T12:42:49.494Z,17.20
2019-05-11T12:45:20.937Z,17.40
2019-05-11T12:47:50.115Z,17.80
2019-05-11T12:50:20.398Z,18.20
2019-05-11T12:52:49.977Z,18.10
2019-05-11T12:55:19.684Z,17.60
2019-05-11T12:58:04.654Z,17.30
2019-05-11T13:00:33.771Z,17.60
2019-05-11T13:03:03.228Z,18.00
2019-05-11T13:05:32.664Z,18.00
2019-05-11T13:08:02.724Z,17.60
2019-05-11T13:10:33.434Z,17.30
2019-05-11T13:13:02.933Z,17.10
2019-05-11T13:15:32.511Z,17.10
2019-05-11T13:18:01.974Z,17.10
2019-05-11T13:20:33.550Z,17.50
2019-05-11T13:23:02.979Z,17.90
2019-05-11T13:25:34.034Z,18.30
2019-05-11T13:28:14.200Z,18.20
2019-05-11T13:30:48.842Z,18.00
2019-05-11T13:33:19.024Z,18.70
2019-05-11T13:35:49.809Z,19.60
2019-05-11T13:38:19.269Z,20.40
2019-05-11T13:40:49.829Z,20.80
2019-05-11T13:43:20.996Z,20.40
2019-05-11T13:45:50.451Z,19.40
2019-05-11T13:48:20.801Z,18.60
2019-05-11T13:50:50.385Z,18.50
2019-05-11T13:53:19.914Z,19.40
2019-05-11T13:55:49.361Z,20.50
2019-05-11T13:58:20.230Z,21.40
2019-05-11T14:00:49.695Z,21.20
2019-05-11T14:03:19.155Z,20.10
2019-05-11T14:05:48.652Z,19.10
2019-05-11T14:08:19.066Z,19.60
2019-05-11T14:10:49.183Z,20.80
2019-05-11T14:13:21.529Z,21.60
2019-05-11T14:15:50.946Z,22.20
2019-05-11T14:18:20.909Z,21.90
2019-05-11T14:20:50.360Z,20.70
2019-05-11T14:23:32.210Z,19.90
2019-05-11T14:26:01.656Z,19.30
2019-05-11T14:28:31.201Z,19.10
2019-05-11T14:31:00.678Z,18.50
2019-05-11T14:33:30.188Z,17.90
2019-05-11T14:35:59.647Z,17.50
2019-05-11T14:38:30.212Z,17.70
2019-05-11T14:40:59.679Z,17.90
2019-05-11T14:43:29.336Z,18.20
2019-05-11T14:45:58.793Z,18.10
2019-05-11T14:48:30.151Z,18.00
2019-05-11T14:51:00.319Z,18.10
2019-05-11T14:53:29.763Z,18.60
2019-05-11T14:55:59.226Z,20.10
2019-05-11T14:58:28.698Z,20.90
2019-05-11T15:00:58.407Z,21.20
2019-05-11T15:03:33.407Z,21.80
2019-05-11T15:06:02.942Z,22.10
2019-05-11T15:08:32.482Z,22.10
2019-05-11T15:11:02.111Z,22.10
2019-05-11T15:13:31.562Z,22.10
2019-05-11T15:16:00.966Z,22.70
2019-05-11T15:18:38.459Z,23.20
2019-05-11T15:21:01.556Z,23.30
2019-05-11T15:23:31.067Z,23.60
2019-05-11T15:26:00.525Z,23.80
2019-05-11T15:28:33.553Z,24.10
2019-05-11T15:31:03.050Z,23.90
2019-05-11T15:33:32.533Z,23.70
2019-05-11T15:36:01.975Z,23.70
2019-05-11T15:38:33.086Z,23.60
2019-05-11T15:41:02.522Z,23.20
2019-05-11T15:43:31.977Z,23.30
2019-05-11T15:46:02.493Z,23.60
2019-05-11T15:48:32.015Z,23.40
2019-05-11T15:51:01.722Z,23.70
2019-05-11T15:53:31.167Z,23.80
2019-05-11T15:56:01.808Z,23.80
2019-05-11T15:58:32.519Z,23.60
2019-05-11T16:01:02.113Z,23.20
2019-05-11T16:03:32.968Z,23.00
2019-05-11T16:06:02.622Z,22.10
2019-05-11T16:08:32.158Z,20.30
2019-05-11T16:11:01.614Z,18.80
2019-05-11T16:13:31.109Z,17.80
2019-05-11T16:16:00.550Z,17.00
2019-05-11T16:18:30.020Z,16.60
2019-05-11T16:20:59.502Z,16.30
2019-05-11T16:23:29.918Z,16.20
2019-05-11T16:25:59.370Z,16.10
2019-05-11T16:28:30.883Z,15.90
2019-05-11T16:31:00.474Z,15.80
2019-05-11T16:33:30.041Z,15.70
2019-05-11T16:36:00.809Z,15.80
2019-05-11T16:38:33.551Z,15.70
2019-05-11T16:41:02.808Z,15.60
2019-05-11T16:43:32.284Z,15.50
2019-05-11T16:46:03.765Z,15.30
2019-05-11T16:48:33.545Z,15.30
2019-05-11T16:51:03.063Z,15.30
2019-05-11T16:53:35.092Z,15.30
2019-05-11T16:56:04.307Z,15.20
2019-05-11T16:58:33.863Z,15.20
2019-05-11T17:01:03.315Z,15.20
2019-05-11T17:03:32.863Z,15.10
2019-05-11T17:06:02.319Z,15.10
2019-05-11T17:08:31.814Z,15.00
2019-05-11T17:11:01.290Z,15.00
2019-05-11T17:13:30.756Z,15.00
2019-05-11T17:16:00.207Z,14.90
2019-05-11T17:18:29.720Z,14.90
2019-05-11T17:20:59.182Z,14.90
2019-05-11T17:23:30.998Z,14.80
2019-05-11T17:25:59.718Z,14.80
2019-05-11T17:28:29.185Z,14.80
2019-05-11T17:31:00.934Z,14.70
2019-05-11T17:33:29.787Z,14.70
2019-05-11T17:35:59.282Z,14.60
2019-05-11T17:38:28.721Z,14.50
2019-05-11T17:40:59.164Z,14.40
2019-05-11T17:43:28.625Z,14.50
2019-05-11T17:45:58.616Z,14.50
2019-05-11T17:48:28.312Z,14.40
2019-05-11T17:50:59.447Z,14.20
2019-05-11T17:53:29.918Z,14.20
2019-05-11T17:56:07.256Z,14.10
2019-05-11T17:58:38.231Z,14.00
2019-05-11T18:01:09.364Z,14.10
2019-05-11T18:03:43.045Z,14.10
2019-05-11T18:06:13.175Z,13.90
2019-05-11T18:08:42.615Z,13.90
2019-05-11T18:11:12.075Z,13.90
2019-05-11T18:13:41.562Z,13.90
2019-05-11T18:16:11.020Z,13.90
2019-05-11T18:18:40.466Z,13.80
2019-05-11T18:21:11.240Z,13.70
2019-05-11T18:23:43.479Z,13.60
2019-05-11T18:26:13.004Z,13.60
2019-05-11T18:28:43.548Z,13.50
2019-05-11T18:31:13.041Z,13.40
2019-05-11T18:33:44.102Z,13.40
2019-05-11T18:36:34.467Z,13.40
2019-05-11T18:39:06.325Z,13.30
2019-05-11T18:41:38.978Z,13.20
2019-05-11T18:44:08.998Z,13.00
2019-05-11T18:46:40.197Z,12.80
2019-05-11T18:49:09.733Z,12.70
2019-05-11T18:51:44.667Z,12.60
2019-05-11T18:54:19.066Z,12.50
2019-05-11T18:56:48.876Z,12.40
2019-05-11T18:59:19.531Z,12.40
2019-05-11T19:01:50.251Z,12.30
2019-05-11T19:04:24.409Z,12.30
2019-05-11T19:06:53.881Z,12.30
2019-05-11T19:09:24.104Z,12.20
2019-05-11T19:11:53.540Z,12.10
2019-05-11T19:14:23.014Z,12.10
2019-05-11T19:16:52.728Z,12.10
2019-05-11T19:19:24.996Z,12.00
2019-05-11T19:21:54.478Z,12.00
2019-05-11T19:24:23.932Z,12.00
2019-05-11T19:26:54.412Z,11.90
2019-05-11T19:29:24.325Z,11.90
2019-05-11T19:31:55.209Z,11.90
2019-05-11T19:34:24.666Z,11.80
2019-05-11T19:36:54.630Z,11.70
2019-05-11T19:39:24.384Z,11.70
2019-05-11T19:41:53.843Z,11.60
2019-05-11T19:44:24.837Z,11.50
2019-05-11T19:46:54.739Z,11.40
2019-05-11T19:49:24.201Z,11.40
2019-05-11T19:51:53.657Z,11.30
2019-05-11T19:54:23.160Z,11.30
2019-05-11T19:56:52.603Z,11.20
2019-05-11T19:59:23.514Z,11.20
2019-05-11T20:01:57.320Z,11.10
2019-05-11T20:04:28.372Z,11.10
2019-05-11T20:06:59.318Z,11.10
2019-05-11T20:09:30.109Z,11.10
2019-05-11T20:11:59.586Z,11.00
2019-05-11T20:14:31.214Z,11.00
2019-05-11T20:17:03.639Z,11.00
2019-05-11T20:19:34.613Z,11.00
2019-05-11T20:22:04.084Z,11.00
2019-05-11T20:24:33.554Z,10.90
2019-05-11T20:27:02.998Z,10.90
2019-05-11T20:29:32.599Z,10.90
2019-05-11T20:32:02.075Z,10.80
2019-05-11T20:34:31.604Z,10.70
2019-05-11T20:37:01.125Z,10.70
2019-05-11T20:39:30.696Z,10.70
2019-05-11T20:42:00.228Z,10.70
2019-05-11T20:44:29.763Z,10.70
2019-05-11T20:47:03.391Z,10.70
2019-05-11T20:49:38.553Z,10.60
2019-05-11T20:52:09.037Z,10.60
2019-05-11T20:54:38.684Z,10.50
2019-05-11T20:57:09.529Z,10.50
2019-05-11T20:59:38.986Z,10.50
2019-05-11T21:02:09.252Z,10.50
2019-05-11T21:04:39.018Z,10.50
2019-05-11T21:07:09.377Z,10.40
2019-05-11T21:09:39.013Z,10.40
2019-05-11T21:12:08.450Z,10.40
2019-05-11T21:14:39.546Z,10.30
2019-05-11T21:17:10.151Z,10.30
2019-05-11T21:19:42.261Z,10.30
2019-05-11T21:22:10.704Z,10.20
2019-05-11T21:24:41.746Z,10.20
2019-05-11T21:27:12.827Z,10.10
2019-05-11T21:29:42.276Z,10.10
2019-05-11T21:32:11.714Z,10.10
2019-05-11T21:34:41.174Z,10.10
2019-05-11T21:37:12.254Z,10.00
2019-05-11T21:39:41.778Z,10.00
2019-05-11T21:42:13.810Z,10.00
2019-05-11T21:44:43.290Z,10.00
2019-05-11T21:47:12.716Z,9.90
2019-05-11T21:49:42.148Z,9.80
2019-05-11T21:52:11.611Z,9.80
2019-05-11T21:54:41.052Z,9.80
2019-05-11T21:57:10.493Z,9.80
2019-05-11T21:59:39.968Z,9.80
2019-05-11T22:02:11.060Z,9.70
2019-05-11T22:04:41.834Z,9.70
2019-05-11T22:07:14.678Z,9.70
2019-05-11T22:09:44.874Z,9.60
2019-05-11T22:12:15.551Z,9.60
2019-05-11T22:14:45.122Z,9.60
2019-05-11T22:17:15.241Z,9.60
2019-05-11T22:19:44.705Z,9.60
2019-05-11T22:22:24.219Z,9.50
2019-05-11T22:24:45.243Z,9.50
2019-05-11T22:27:15.378Z,9.50
2019-05-11T22:29:44.903Z,9.50
2019-05-11T22:32:17.901Z,9.50
2019-05-11T22:34:47.936Z,9.40
2019-05-11T22:37:17.582Z,9.40
2019-05-11T22:39:49.058Z,9.40
2019-05-11T22:42:18.485Z,9.40
2019-05-11T22:44:48.293Z,9.40
2019-05-11T22:47:18.935Z,9.30
2019-05-11T22:49:49.810Z,9.30
2019-05-11T22:52:31.913Z,9.30
2019-05-11T22:54:50.531Z,9.20
2019-05-11T22:57:19.986Z,9.20
2019-05-11T22:59:49.435Z,9.20
2019-05-11T23:02:19.492Z,9.20
2019-05-11T23:04:49.130Z,9.20
2019-05-11T23:07:18.654Z,9.20
2019-05-11T23:09:48.154Z,9.10
2019-05-11T23:12:18.092Z,9.20
2019-05-11T23:14:49.140Z,9.10
2019-05-11T23:17:19.342Z,9.00
2019-05-11T23:19:49.794Z,9.00
2019-05-11T23:22:20.821Z,9.00
2019-05-11T23:24:50.281Z,9.00
2019-05-11T23:27:19.748Z,9.00
2019-05-11T23:29:49.172Z,9.00
2019-05-11T23:32:18.626Z,8.90
2019-05-11T23:34:48.264Z,8.90
2019-05-11T23:37:21.987Z,8.90
2019-05-11T23:39:51.014Z,8.80
2019-05-11T23:42:20.382Z,8.80
2019-05-11T23:44:49.851Z,8.90
2019-05-11T23:47:20.367Z,8.80
2019-05-11T23:49:50.739Z,8.80
2019-05-11T23:52:21.787Z,8.80
2019-05-11T23:54:51.247Z,8.80
2019-05-11T23:57:20.697Z,8.80
2019-05-11T23:59:50.161Z,8.80
